aviador You're here:

KPVU Decoded Metar

PROVO MUNI in UT, USA
Report Time2018-05-27 00:56:00
UTC Time2018-05-27 01:13:15
Flight Rules vfr VFR
Wind320° at 06 kt
W.Decomp.*RWY 31: 6.0 kt HW 0.2 kt LCW
RWY 36: 3.7 kt HW 4.7 kt LCW
W.Rank320° ranks 6
Current wind is below 320° avg. (10.3)
Visibility9999 m
Phenomena:N/A
Clouds:Broken 100 Hf
Expected CloudBase > 8,000 ft AGL from Temp-Dew spread
Ceiling10,000 ft
Temp23°C (ISA +17)
Dew Point03°C (27% RH)
AAT19.3°C
QNH1008 hPa
Density Alt6,709 ft
Elevation4,491 ft
Report Wrong Elevation
Raw Report
KPVU 270056Z 32006KT 10SM BKN100 23/03 A2976 RMK AO2 SLP036
T02330033=

Extra information for KPVU:More info

Metar Taf Metar & Taf Last 4 Metars F.Rules Stats Wind Profile Meteogram Temp Stats Airport Information Weather charts Add Link Nearby VenuesMetar ALERT Operation Metar Decoded Social comments

AIRNAV info for KPVU